Time;durP1;ratioP1;P1;durP2;ratioP2;P2;SDS_P1;SDS_P2;PMS_P1;PMS_P2;Temp;Humidity;BMP_temperature;BMP_pressure;BME280_temperature;BME280_humidity;BME280_pressure;Samples;Min_cycle;Max_cycle;Signal;HPM_P1;HPM_P2
2021/04/02 00:01:56;;;;;;;8.32;2.00;;;20.90;99.90;;;;;;5074541;28;20037;-63
2021/04/02 00:04:22;;;;;;;6.32;1.88;;;20.90;99.90;;;;;;5074424;28;20467;-62
2021/04/02 00:06:48;;;;;;;8.35;2.10;;;20.90;99.90;;;;;;5062915;28;20029;-62
2021/04/02 00:09:13;;;;;;;9.57;2.50;;;20.90;99.90;;;;;;5068714;28;20064;-63
2021/04/02 00:11:41;;;;;;;10.18;2.53;;;20.90;99.90;;;;;;5078091;28;20399;-62
2021/04/02 00:14:08;;;;;;;12.05;2.25;;;20.90;99.90;;;;;;5074668;28;20032;-63
2021/04/02 00:16:34;;;;;;;9.68;2.05;;;20.90;99.90;;;;;;5074354;28;20098;-63
2021/04/02 00:19:00;;;;;;;8.48;2.03;;;20.90;99.90;;;;;;5074258;28;20049;-63
2021/04/02 00:21:25;;;;;;;10.10;2.47;;;20.90;99.90;;;;;;5074435;28;20460;-63
2021/04/02 00:23:51;;;;;;;11.30;2.22;;;20.90;99.90;;;;;;5074751;28;20025;-63
2021/04/02 00:26:19;;;;;;;9.70;2.38;;;20.80;99.90;;;;;;5089775;28;20515;-61
2021/04/02 00:28:51;;;;;;;6.03;2.15;;;20.80;99.90;;;;;;5074335;28;20027;-64
2021/04/02 00:31:17;;;;;;;5.88;1.88;;;20.80;99.90;;;;;;5073901;28;20020;-64
2021/04/02 00:33:42;;;;;;;6.07;2.00;;;20.80;99.90;;;;;;5073852;28;20082;-64
2021/04/02 00:36:08;;;;;;;7.10;1.80;;;20.80;99.90;;;;;;5073673;28;20491;-64
2021/04/02 00:38:34;;;;;;;6.13;2.20;;;20.80;99.90;;;;;;5074341;28;20023;-64
2021/04/02 00:41:03;;;;;;;8.45;1.98;;;20.70;99.90;;;;;;5073883;28;20353;-63
2021/04/02 00:43:34;;;;;;;7.30;2.13;;;20.70;99.90;;;;;;5073385;28;20107;-63
2021/04/02 00:46:01;;;;;;;7.35;1.90;;;20.70;99.90;;;;;;5074310;28;20028;-63
2021/04/02 00:48:27;;;;;;;8.18;1.88;;;20.70;99.90;;;;;;5073748;28;20025;-63
2021/04/02 00:51:02;;;;;;;6.15;1.80;;;20.70;99.90;;;;;;5073910;28;20032;-64
2021/04/02 00:53:30;;;;;;;8.90;2.10;;;20.70;99.90;;;;;;5073648;28;20039;-63
2021/04/02 00:55:57;;;;;;;7.00;2.20;;;20.70;99.90;;;;;;5074153;28;20028;-62
2021/04/02 00:58:25;;;;;;;7.88;2.00;;;20.70;99.90;;;;;;5074014;28;20055;-62
2021/04/02 01:00:52;;;;;;;6.32;1.75;;;20.70;99.90;;;;;;5073452;28;20024;-63
2021/04/02 01:03:22;;;;;;;3.65;1.48;;;20.60;99.90;;;;;;5073120;28;20131;-62
2021/04/02 01:05:51;;;;;;;9.00;1.85;;;20.60;99.90;;;;;;5073628;28;20028;-62
2021/04/02 01:08:19;;;;;;;8.90;2.00;;;20.60;99.90;;;;;;5073557;28;20495;-62
2021/04/02 01:10:45;;;;;;;6.05;1.88;;;20.60;99.90;;;;;;5072913;28;20032;-62
2021/04/02 01:13:18;;;;;;;7.07;1.60;;;20.60;99.90;;;;;;5073641;28;20020;-61
2021/04/02 01:15:57;;;;;;;6.32;1.70;;;20.60;99.90;;;;;;5073933;28;20028;-62
2021/04/02 01:18:47;;;;;;;7.25;1.63;;;20.50;99.90;;;;;;5073324;28;20024;-62
2021/04/02 01:21:34;;;;;;;5.75;1.80;;;20.50;99.90;;;;;;5073639;28;20032;-63
2021/04/02 01:24:20;;;;;;;6.50;1.80;;;20.50;99.90;;;;;;5056047;28;20365;-63
2021/04/02 01:26:58;;;;;;;7.00;1.88;;;20.50;99.90;;;;;;5062696;28;20024;-63
2021/04/02 01:29:47;;;;;;;7.55;1.88;;;20.50;99.90;;;;;;5073013;28;20016;-62
2021/04/02 01:32:18;;;;;;;5.55;1.73;;;20.50;99.90;;;;;;5073589;28;20052;-62
2021/04/02 01:34:47;;;;;;;6.13;2.13;;;20.50;99.90;;;;;;5073142;28;20013;-62
2021/04/02 01:37:22;;;;;;;4.95;1.40;;;20.40;99.90;;;;;;5059219;28;20104;-62
2021/04/02 01:39:49;;;;;;;5.93;1.70;;;20.50;99.90;;;;;;5073070;28;20021;-62
2021/04/02 01:42:20;;;;;;;11.65;1.83;;;20.40;99.90;;;;;;5072611;28;20032;-62
2021/04/02 01:44:47;;;;;;;5.82;1.67;;;20.40;99.90;;;;;;5073010;28;20031;-63
2021/04/02 01:47:14;;;;;;;5.20;1.75;;;20.40;99.90;;;;;;5073287;28;20480;-61
2021/04/02 01:49:40;;;;;;;6.45;1.50;;;20.40;99.90;;;;;;5072536;28;20021;-62
2021/04/02 01:52:07;;;;;;;5.82;1.40;;;20.40;99.90;;;;;;5072874;28;20024;-62
2021/04/02 01:54:34;;;;;;;6.55;1.52;;;20.40;99.90;;;;;;5072422;28;20036;-61
2021/04/02 01:57:03;;;;;;;4.93;1.70;;;20.40;99.90;;;;;;5072072;28;20071;-62
2021/04/02 01:59:30;;;;;;;6.03;1.85;;;20.40;99.90;;;;;;5072654;28;20389;-62
2021/04/02 02:01:58;;;;;;;6.15;1.40;;;20.30;99.90;;;;;;5072156;28;20090;-62
2021/04/02 02:04:25;;;;;;;4.22;1.40;;;20.30;99.90;;;;;;5072171;28;20071;-62
2021/04/02 02:06:52;;;;;;;5.63;1.55;;;20.30;99.90;;;;;;5072108;28;20036;-62
2021/04/02 02:09:26;;;;;;;5.82;1.55;;;20.30;99.90;;;;;;5072512;28;20024;-62
2021/04/02 02:11:57;;;;;;;6.07;1.70;;;20.30;99.90;;;;;;5072308;28;20029;-62
2021/04/02 02:14:26;;;;;;;4.28;1.40;;;20.30;99.90;;;;;;5088041;28;20423;-62
2021/04/02 02:16:55;;;;;;;5.10;1.63;;;20.30;99.90;;;;;;5072170;28;20029;-62
2021/04/02 02:19:24;;;;;;;6.07;1.58;;;20.30;99.90;;;;;;5072060;28;20035;-61
2021/04/02 02:21:52;;;;;;;4.15;1.30;;;20.30;99.90;;;;;;5071990;28;20468;-62
2021/04/02 02:24:18;;;;;;;4.00;1.48;;;20.20;99.90;;;;;;5072448;28;20043;-62
2021/04/02 02:26:44;;;;;;;3.25;1.40;;;20.20;99.90;;;;;;5072114;28;20059;-61
2021/04/02 02:29:11;;;;;;;4.80;1.23;;;20.20;99.90;;;;;;5072155;28;20537;-61
2021/04/02 02:31:38;;;;;;;5.82;1.40;;;20.20;99.90;;;;;;5071504;28;20036;-61
2021/04/02 02:34:05;;;;;;;4.75;1.60;;;20.20;99.90;;;;;;5071647;28;20017;-61
2021/04/02 02:36:32;;;;;;;4.68;1.50;;;20.20;99.90;;;;;;5072115;28;20116;-61
2021/04/02 02:38:58;;;;;;;4.68;1.50;;;20.20;99.90;;;;;;5071267;28;20399;-62
2021/04/02 02:41:29;;;;;;;6.28;1.52;;;20.20;99.90;;;;;;5072045;28;20025;-62
2021/04/02 02:43:56;;;;;;;5.97;1.67;;;20.20;99.90;;;;;;5071803;28;20060;-62
2021/04/02 02:46:25;;;;;;;2.90;1.30;;;20.20;99.90;;;;;;5071597;28;20025;-62
2021/04/02 02:48:55;;;;;;;5.63;1.48;;;20.10;99.90;;;;;;5071603;28;20036;-62
2021/04/02 02:51:22;;;;;;;4.25;1.50;;;20.10;99.90;;;;;;5071551;28;20042;-62
2021/04/02 02:53:49;;;;;;;3.13;1.17;;;20.10;99.90;;;;;;5072028;28;20054;-62
2021/04/02 02:56:17;;;;;;;4.45;1.20;;;20.10;99.90;;;;;;5071037;28;20028;-61
2021/04/02 02:58:44;;;;;;;4.30;1.58;;;20.10;99.90;;;;;;5071469;28;20035;-62
2021/04/02 03:01:14;;;;;;;4.05;1.15;;;20.10;99.90;;;;;;5071496;28;20048;-62
2021/04/02 03:03:40;;;;;;;3.72;1.40;;;20.10;99.90;;;;;;5070985;28;20417;-61
2021/04/02 03:06:07;;;;;;;4.05;1.40;;;20.00;99.90;;;;;;5071772;28;20099;-61
2021/04/02 03:08:42;;;;;;;5.50;1.38;;;20.00;99.90;;;;;;5071379;28;20028;-62
2021/04/02 03:11:10;;;;;;;4.38;1.30;;;20.00;99.90;;;;;;5071675;28;20090;-62
2021/04/02 03:13:37;;;;;;;2.97;1.17;;;20.00;99.90;;;;;;5071617;28;20024;-62
2021/04/02 03:16:03;;;;;;;3.25;1.10;;;20.00;99.90;;;;;;5071466;28;20021;-62
2021/04/02 03:18:30;;;;;;;4.28;1.52;;;20.00;99.90;;;;;;5071644;28;20496;-61
2021/04/02 03:20:58;;;;;;;3.67;1.30;;;20.00;99.90;;;;;;5071699;28;20066;-62
2021/04/02 03:23:24;;;;;;;6.05;1.38;;;20.00;99.90;;;;;;5071547;28;20079;-62
2021/04/02 03:25:51;;;;;;;4.10;1.05;;;20.00;99.90;;;;;;5071846;28;20025;-61
2021/04/02 03:28:18;;;;;;;5.18;1.65;;;20.00;99.90;;;;;;5071219;28;20384;-62
2021/04/02 03:30:44;;;;;;;4.55;1.23;;;20.00;99.90;;;;;;5071579;28;20032;-62
2021/04/02 03:33:12;;;;;;;2.90;1.25;;;20.00;99.90;;;;;;5071485;28;20036;-61
2021/04/02 03:35:39;;;;;;;3.72;1.30;;;20.00;99.90;;;;;;5071544;28;20468;-62
2021/04/02 03:38:08;;;;;;;3.70;1.30;;;19.90;99.90;;;;;;5070916;28;20159;-62
2021/04/02 03:40:35;;;;;;;2.67;1.13;;;19.90;99.90;;;;;;5071060;28;20020;-62
2021/04/02 03:43:02;;;;;;;2.50;1.13;;;19.90;99.90;;;;;;5071344;28;20028;-61
2021/04/02 03:45:30;;;;;;;3.17;1.23;;;19.90;99.90;;;;;;5071324;28;20500;-61
2021/04/02 03:47:57;;;;;;;4.30;1.45;;;19.90;99.90;;;;;;5070943;28;20028;-61
2021/04/02 03:50:29;;;;;;;3.55;1.58;;;19.90;99.90;;;;;;5070938;28;20024;-61
2021/04/02 03:53:06;;;;;;;2.80;1.23;;;19.90;99.90;;;;;;5071279;28;20025;-61
2021/04/02 03:55:33;;;;;;;3.83;1.45;;;19.90;99.90;;;;;;5071395;28;20028;-62
2021/04/02 03:58:01;;;;;;;4.75;1.42;;;19.90;99.90;;;;;;5071175;28;20031;-62
2021/04/02 04:00:33;;;;;;;3.45;1.10;;;19.80;99.90;;;;;;5070628;28;20028;-62
2021/04/02 04:03:02;;;;;;;2.78;1.40;;;19.90;99.90;;;;;;5071054;28;20033;-63
2021/04/02 04:05:29;;;;;;;3.17;1.23;;;19.80;99.90;;;;;;5071077;28;20055;-62
2021/04/02 04:07:56;;;;;;;3.22;1.25;;;19.80;99.90;;;;;;5070803;28;20032;-62
2021/04/02 04:10:23;;;;;;;3.00;1.20;;;19.80;99.90;;;;;;5071202;28;20078;-61
2021/04/02 04:12:53;;;;;;;9.13;1.40;;;19.80;99.90;;;;;;5074921;28;20372;-62
2021/04/02 04:15:20;;;;;;;4.15;1.30;;;19.80;99.90;;;;;;5075079;28;20400;-62
2021/04/02 04:17:47;;;;;;;3.33;1.13;;;19.80;99.90;;;;;;5074286;28;20088;-61
2021/04/02 04:20:15;;;;;;;4.10;1.38;;;19.80;99.90;;;;;;5074710;28;20837;-61
2021/04/02 04:22:43;;;;;;;2.75;1.00;;;19.80;99.90;;;;;;5074052;28;20111;-62
2021/04/02 04:25:10;;;;;;;5.55;1.00;;;19.70;99.90;;;;;;5074438;28;20033;-61
2021/04/02 04:27:40;;;;;;;5.38;1.20;;;19.70;99.90;;;;;;5074367;28;20047;-61
2021/04/02 04:30:10;;;;;;;3.78;1.17;;;19.70;99.90;;;;;;5074534;28;20020;-61
2021/04/02 04:32:36;;;;;;;2.92;1.23;;;19.70;99.90;;;;;;5074047;28;20107;-62
2021/04/02 04:35:02;;;;;;;5.82;1.42;;;19.70;99.90;;;;;;5074528;28;20541;-61
2021/04/02 04:37:29;;;;;;;3.20;1.20;;;19.60;99.90;;;;;;5073670;28;20027;-61
2021/04/02 04:39:56;;;;;;;4.63;1.30;;;19.60;99.90;;;;;;5074186;28;20035;-62
2021/04/02 04:42:23;;;;;;;4.32;1.30;;;19.60;99.90;;;;;;5074470;28;20078;-61
2021/04/02 04:44:52;;;;;;;3.25;1.08;;;19.60;99.90;;;;;;5073984;28;20035;-61
2021/04/02 04:47:17;;;;;;;3.38;1.40;;;19.60;99.90;;;;;;5073887;28;20033;-61
2021/04/02 04:49:44;;;;;;;4.95;1.27;;;19.60;99.90;;;;;;5073706;28;20020;-61
2021/04/02 04:52:14;;;;;;;10.63;1.27;;;19.60;99.90;;;;;;5073942;28;20104;-61
2021/04/02 04:54:42;;;;;;;3.50;1.00;;;19.60;99.90;;;;;;5073580;28;20391;-61
2021/04/02 04:57:10;;;;;;;1.95;0.80;;;19.60;99.90;;;;;;5073931;28;20032;-61
2021/04/02 04:59:39;;;;;;;3.67;1.48;;;19.60;99.90;;;;;;5073856;28;20020;-60
2021/04/02 05:02:07;;;;;;;3.88;1.13;;;19.60;99.90;;;;;;5072907;28;20135;-60
2021/04/02 05:04:33;;;;;;;3.40;1.30;;;19.60;99.90;;;;;;5054031;28;20078;-61
2021/04/02 05:07:01;;;;;;;6.18;1.52;;;19.60;99.90;;;;;;5059207;28;20028;-60
2021/04/02 05:09:28;;;;;;;2.20;1.13;;;19.50;99.90;;;;;;5072780;28;20024;-60
2021/04/02 05:11:58;;;;;;;2.53;0.98;;;19.50;99.90;;;;;;5073667;28;20068;-61
2021/04/02 05:14:24;;;;;;;2.90;1.00;;;19.50;99.90;;;;;;5073663;28;20476;-60
2021/04/02 05:16:51;;;;;;;3.47;1.40;;;19.50;99.90;;;;;;5073723;28;20040;-61
2021/04/02 05:19:18;;;;;;;6.63;1.40;;;19.50;99.90;;;;;;5073443;28;20725;-60
2021/04/02 05:21:45;;;;;;;2.78;1.02;;;19.50;99.90;;;;;;5072738;28;20507;-60
2021/04/02 05:24:11;;;;;;;2.90;1.00;;;19.50;99.90;;;;;;5073522;28;20055;-60
2021/04/02 05:26:38;;;;;;;3.58;1.10;;;19.50;99.90;;;;;;5073492;28;20017;-60
2021/04/02 05:29:04;;;;;;;1.80;0.80;;;19.50;99.90;;;;;;5073456;28;20028;-60
2021/04/02 05:31:30;;;;;;;2.83;1.02;;;19.40;99.90;;;;;;5072676;28;20388;-60
2021/04/02 05:33:56;;;;;;;2.75;1.10;;;19.40;99.90;;;;;;5073554;28;20056;-60
2021/04/02 05:36:22;;;;;;;3.90;1.00;;;19.40;99.90;;;;;;5072893;28;20520;-60
2021/04/02 05:38:49;;;;;;;3.47;1.20;;;19.40;99.90;;;;;;5072125;28;20128;-60
2021/04/02 05:41:19;;;;;;;3.90;0.93;;;19.40;99.90;;;;;;5072863;28;20048;-59
2021/04/02 05:43:48;;;;;;;5.20;1.13;;;19.40;99.90;;;;;;5072618;28;20108;-60
2021/04/02 05:46:15;;;;;;;4.05;1.23;;;19.40;99.90;;;;;;5071620;28;20086;-64
2021/04/02 05:48:44;;;;;;;4.55;2.22;;;19.40;99.90;;;;;;5072979;28;20035;-60
2021/04/02 05:51:12;;;;;;;7.15;2.90;;;19.00;93.50;;;;;;5070363;28;21633;-60
2021/04/02 05:53:39;;;;;;;6.82;3.50;;;18.60;93.10;;;;;;5063778;28;20017;-67
2021/04/02 05:56:06;;;;;;;8.93;4.13;;;18.20;92.60;;;;;;5072873;28;20028;-59
2021/04/02 05:58:33;;;;;;;8.05;4.07;;;18.00;92.30;;;;;;5051611;28;20017;-60
2021/04/02 06:00:58;;;;;;;8.68;4.80;;;17.80;92.00;;;;;;5053184;28;20021;-59
2021/04/02 06:03:25;;;;;;;7.07;2.35;;;17.60;91.80;;;;;;5074275;28;20058;-59
2021/04/02 06:05:50;;;;;;;3.58;2.13;;;17.50;93.10;;;;;;5085329;28;20024;-59
2021/04/02 06:08:18;;;;;;;4.20;2.10;;;17.80;92.90;;;;;;5087260;28;20039;-61
2021/04/02 06:10:43;;;;;;;3.63;1.77;;;17.80;93.10;;;;;;5088119;28;20103;-59
2021/04/02 06:13:09;;;;;;;3.20;1.85;;;17.90;92.90;;;;;;5065867;28;20155;-59
2021/04/02 06:15:35;;;;;;;6.22;2.28;;;18.00;92.90;;;;;;5074582;28;20021;-59
2021/04/02 06:18:12;;;;;;;6.53;2.30;;;17.90;92.80;;;;;;5080087;28;20119;-59
2021/04/02 06:20:46;;;;;;;4.82;2.72;;;17.90;92.90;;;;;;5086030;28;20024;-59
2021/04/02 06:23:15;;;;;;;6.97;4.15;;;17.90;92.50;;;;;;5090981;28;20575;-59
2021/04/02 06:25:59;;;;;;;8.13;4.40;;;17.50;91.70;;;;;;5090587;28;20424;-58
2021/04/02 06:28:35;;;;;;;6.55;4.22;;;17.10;91.50;;;;;;5092809;28;20023;-58
2021/04/02 06:31:04;;;;;;;8.50;5.00;;;16.90;91.50;;;;;;5090652;28;20530;-59
2021/04/02 06:33:51;;;;;;;9.93;4.70;;;16.60;91.50;;;;;;5072746;28;20496;-59
2021/04/02 06:36:24;;;;;;;11.18;4.57;;;16.30;91.60;;;;;;5072169;28;20017;-58
2021/04/02 06:38:54;;;;;;;10.82;5.00;;;16.20;91.80;;;;;;5090749;28;20028;-59
2021/04/02 06:41:22;;;;;;;8.77;4.25;;;16.10;91.80;;;;;;5078838;28;20074;-60
2021/04/02 06:43:51;;;;;;;5.43;3.25;;;16.20;92.40;;;;;;5066340;28;20032;-60
2021/04/02 06:46:24;;;;;;;8.05;3.35;;;16.60;92.50;;;;;;5069335;28;20430;-61
2021/04/02 06:48:50;;;;;;;7.80;2.80;;;16.70;92.70;;;;;;5071820;28;20388;-60
2021/04/02 06:51:18;;;;;;;7.57;2.20;;;17.00;93.40;;;;;;5069949;28;20036;-60
2021/04/02 06:53:45;;;;;;;4.22;2.00;;;17.10;93.60;;;;;;5067829;28;20035;-59
2021/04/02 06:56:13;;;;;;;8.73;2.70;;;17.20;93.20;;;;;;5060006;28;20056;-61
2021/04/02 06:58:40;;;;;;;4.72;2.15;;;17.20;93.10;;;;;;5070471;28;20028;-60
2021/04/02 07:01:06;;;;;;;4.97;1.90;;;17.20;93.30;;;;;;5071919;28;20037;-65
2021/04/02 07:03:33;;;;;;;5.47;1.90;;;17.30;93.40;;;;;;5081466;28;20040;-60
2021/04/02 07:06:06;;;;;;;6.53;2.10;;;17.40;93.40;;;;;;5078728;28;20530;-64
2021/04/02 07:08:37;;;;;;;6.22;2.00;;;17.40;93.70;;;;;;5068260;28;20032;-63
2021/04/02 07:11:03;;;;;;;4.05;1.73;;;17.50;93.60;;;;;;5078448;28;20424;-60
2021/04/02 07:13:34;;;;;;;4.43;1.65;;;17.50;93.60;;;;;;5078201;28;20103;-63
2021/04/02 07:16:01;;;;;;;4.15;1.50;;;17.60;93.50;;;;;;5072774;28;20028;-66
2021/04/02 07:18:28;;;;;;;6.07;1.77;;;17.60;93.60;;;;;;5071126;28;20070;-64
2021/04/02 07:20:54;;;;;;;5.22;1.38;;;17.70;93.50;;;;;;5071030;28;20400;-64
2021/04/02 07:23:20;;;;;;;4.50;1.30;;;17.70;93.50;;;;;;5070373;28;20032;-63
2021/04/02 07:25:46;;;;;;;5.28;1.40;;;17.80;93.60;;;;;;5065455;28;20076;-64
2021/04/02 07:28:12;;;;;;;3.10;1.40;;;17.80;93.60;;;;;;5067472;28;20078;-65
2021/04/02 07:30:38;;;;;;;5.85;1.30;;;17.90;93.60;;;;;;5077213;28;20024;-65
2021/04/02 07:33:08;;;;;;;3.67;1.25;;;17.90;93.60;;;;;;5079751;28;20488;-62
2021/04/02 07:35:40;;;;;;;2.42;0.95;;;17.90;93.60;;;;;;5074370;28;20112;-63
2021/04/02 07:38:17;;;;;;;4.35;1.08;;;18.00;93.70;;;;;;5071822;28;20094;-66
2021/04/02 07:40:48;;;;;;;4.00;1.15;;;18.00;93.70;;;;;;5074380;28;20028;-64
2021/04/02 07:43:13;;;;;;;4.05;1.58;;;18.00;93.60;;;;;;5078694;28;20036;-64
2021/04/02 07:45:39;;;;;;;4.22;1.50;;;18.10;93.60;;;;;;5074803;28;20077;-64
2021/04/02 07:48:21;;;;;;;5.65;1.63;;;18.10;93.70;;;;;;5087052;28;20047;-63
2021/04/02 07:50:56;;;;;;;4.40;1.23;;;18.10;93.70;;;;;;5085921;28;20365;-60
2021/04/02 07:53:27;;;;;;;2.40;1.08;;;18.20;93.80;;;;;;5087233;28;20027;-64
2021/04/02 07:56:17;;;;;;;4.93;1.52;;;18.30;93.80;;;;;;5076907;28;20052;-66
2021/04/02 07:58:52;;;;;;;4.15;1.23;;;18.30;94.00;;;;;;5073048;28;20074;-61
2021/04/02 08:01:28;;;;;;;3.28;1.20;;;18.30;93.80;;;;;;5079940;28;20136;-61
2021/04/02 08:03:54;;;;;;;4.75;1.23;;;18.30;93.80;;;;;;5077711;28;20048;-65
2021/04/02 08:06:35;;;;;;;3.38;1.30;;;18.30;93.80;;;;;;5071215;28;20027;-61
2021/04/02 08:09:02;;;;;;;2.42;0.85;;;18.40;93.80;;;;;;5077297;28;20078;-59
2021/04/02 08:11:43;;;;;;;3.28;1.25;;;18.40;93.70;;;;;;5073389;28;20074;-61
2021/04/02 08:14:11;;;;;;;3.70;1.40;;;18.40;93.70;;;;;;5075424;28;20125;-62
2021/04/02 08:16:56;;;;;;;3.25;1.23;;;18.40;93.60;;;;;;5072124;28;20020;-62
2021/04/02 08:19:27;;;;;;;4.20;1.08;;;18.50;93.60;;;;;;5074102;28;20098;-65
2021/04/02 08:22:00;;;;;;;3.45;1.25;;;18.50;93.60;;;;;;5072253;28;20718;-62
2021/04/02 08:24:29;;;;;;;2.83;0.83;;;18.60;93.60;;;;;;5083157;28;20131;-63
2021/04/02 08:26:55;;;;;;;4.47;1.23;;;18.50;93.50;;;;;;5078334;28;20017;-66
2021/04/02 08:29:23;;;;;;;2.95;1.10;;;18.60;93.50;;;;;;5083624;28;20106;-65
2021/04/02 08:32:10;;;;;;;2.20;0.98;;;18.60;93.40;;;;;;5076862;28;20107;-64
2021/04/02 08:34:37;;;;;;;2.13;1.00;;;18.60;93.50;;;;;;5071351;28;20028;-62
2021/04/02 08:37:05;;;;;;;2.67;1.08;;;18.70;93.50;;;;;;5082785;28;20032;-66
2021/04/02 08:39:32;;;;;;;2.63;0.95;;;18.60;93.40;;;;;;5074838;28;20063;-66
2021/04/02 08:42:01;;;;;;;3.60;1.00;;;18.70;93.70;;;;;;5072816;28;20495;-66
2021/04/02 08:44:31;;;;;;;2.33;1.10;;;18.70;93.40;;;;;;5077971;28;20044;-64
2021/04/02 08:46:58;;;;;;;1.95;0.70;;;18.80;93.40;;;;;;5080524;28;20560;-63
2021/04/02 08:49:24;;;;;;;2.78;0.90;;;18.80;93.20;;;;;;5078854;28;20132;-64
2021/04/02 08:51:50;;;;;;;2.72;1.05;;;18.80;93.30;;;;;;5082103;28;20115;-63
2021/04/02 08:54:21;;;;;;;3.00;0.93;;;18.80;93.10;;;;;;5081784;28;20036;-62
2021/04/02 08:56:50;;;;;;;3.78;1.10;;;18.90;93.20;;;;;;5071595;28;20023;-65
2021/04/02 08:59:17;;;;;;;2.95;1.17;;;18.90;93.20;;;;;;5074019;28;20476;-67
2021/04/02 09:01:48;;;;;;;2.65;0.73;;;18.90;93.00;;;;;;5093717;28;20375;-65
2021/04/02 09:04:16;;;;;;;3.58;0.80;;;19.00;93.10;;;;;;5090129;28;20459;-64
2021/04/02 09:06:42;;;;;;;3.10;1.00;;;19.00;93.10;;;;;;5073494;28;20044;-66
2021/04/02 09:09:19;;;;;;;2.92;0.93;;;19.00;93.10;;;;;;5073498;28;20067;-62
2021/04/02 09:11:51;;;;;;;3.17;0.80;;;19.00;93.10;;;;;;5090317;28;20028;-65
2021/04/02 09:14:17;;;;;;;2.75;1.00;;;19.00;93.30;;;;;;5079819;28;20016;-64
2021/04/02 09:16:45;;;;;;;1.85;0.70;;;19.00;93.10;;;;;;5081215;28;20035;-64
2021/04/02 09:19:12;;;;;;;1.95;0.80;;;19.10;93.10;;;;;;5074453;28;20032;-65
2021/04/02 09:21:38;;;;;;;1.90;0.80;;;19.10;93.10;;;;;;5073307;28;20089;-64
2021/04/02 09:24:05;;;;;;;4.70;0.73;;;19.10;93.20;;;;;;5072363;28;20496;-62
2021/04/02 09:26:41;;;;;;;3.33;0.95;;;19.10;93.30;;;;;;5073120;28;20465;-61
2021/04/02 09:29:07;;;;;;;2.20;0.80;;;19.20;93.20;;;;;;5062251;28;20116;-65
2021/04/02 09:31:35;;;;;;;2.28;0.77;;;19.20;93.30;;;;;;5092124;28;20044;-63
2021/04/02 09:34:08;;;;;;;3.13;0.98;;;19.20;93.30;;;;;;5080092;28;20393;-63
2021/04/02 09:36:37;;;;;;;2.72;0.80;;;19.20;93.40;;;;;;5072775;28;20028;-63
2021/04/02 09:39:14;;;;;;;2.92;0.70;;;19.20;93.40;;;;;;5087365;28;20499;-62
2021/04/02 09:42:00;;;;;;;2.10;0.73;;;19.20;93.50;;;;;;5081068;28;20032;-62
2021/04/02 09:44:38;;;;;;;2.05;0.70;;;19.20;93.40;;;;;;5076654;28;20047;-63
2021/04/02 09:47:14;;;;;;;3.17;0.70;;;19.20;93.50;;;;;;5087064;28;20024;-63
2021/04/02 09:49:41;;;;;;;2.15;0.75;;;19.20;93.30;;;;;;5078700;28;20028;-62
2021/04/02 09:52:09;;;;;;;2.08;1.00;;;19.10;93.10;;;;;;5093221;28;20028;-62
2021/04/02 09:54:36;;;;;;;1.58;0.75;;;19.10;93.10;;;;;;5081723;28;20056;-61
2021/04/02 09:57:05;;;;;;;2.22;0.77;;;19.20;93.60;;;;;;5073211;28;20099;-61
2021/04/02 09:59:31;;;;;;;2.80;1.02;;;19.20;93.30;;;;;;5084943;28;20028;-61
2021/04/02 10:01:56;;;;;;;2.53;0.88;;;19.20;93.30;;;;;;5091847;28;20074;-61
2021/04/02 10:04:23;;;;;;;2.22;0.70;;;19.20;93.40;;;;;;5087110;28;20371;-62
2021/04/02 10:06:49;;;;;;;2.25;0.93;;;19.30;93.40;;;;;;5056798;28;20043;-62
2021/04/02 10:09:15;;;;;;;2.13;0.95;;;19.30;93.40;;;;;;5088448;28;20104;-61
2021/04/02 10:11:44;;;;;;;2.72;0.90;;;19.40;93.50;;;;;;5085366;28;20048;-61
2021/04/02 10:14:11;;;;;;;3.55;0.85;;;19.40;93.50;;;;;;5082333;28;20024;-61
2021/04/02 10:16:37;;;;;;;2.47;0.80;;;19.40;93.50;;;;;;5067619;28;20026;-62
2021/04/02 10:19:05;;;;;;;2.22;0.80;;;19.50;93.50;;;;;;5068584;28;20029;-63
2021/04/02 10:21:31;;;;;;;2.42;0.77;;;19.50;93.50;;;;;;5074586;28;20048;-62
2021/04/02 10:23:59;;;;;;;2.92;1.00;;;19.60;93.60;;;;;;5078407;28;20051;-64
2021/04/02 10:26:25;;;;;;;2.50;0.85;;;19.60;93.50;;;;;;5080005;28;20498;-63
2021/04/02 10:28:51;;;;;;;4.70;0.88;;;19.70;93.50;;;;;;5071243;28;20487;-61
2021/04/02 10:31:16;;;;;;;9.02;1.13;;;19.80;94.10;;;;;;5071729;28;20050;-61
2021/04/02 10:33:42;;;;;;;3.20;0.85;;;19.90;93.80;;;;;;5068980;28;20097;-63
2021/04/02 10:36:08;;;;;;;3.38;0.95;;;19.90;93.80;;;;;;5094573;28;20032;-62
2021/04/02 10:38:35;;;;;;;2.20;1.00;;;20.00;93.90;;;;;;5073072;28;20070;-64
2021/04/02 10:41:01;;;;;;;3.83;0.80;;;20.00;94.10;;;;;;5070662;28;20028;-64
2021/04/02 10:43:26;;;;;;;6.70;1.15;;;20.00;94.40;;;;;;5070327;28;20392;-63
2021/04/02 10:45:53;;;;;;;3.05;0.88;;;20.10;94.20;;;;;;5070755;28;20029;-61
2021/04/02 10:48:19;;;;;;;2.03;0.82;;;20.10;94.10;;;;;;5068188;28;20078;-61
2021/04/02 10:50:45;;;;;;;5.32;0.95;;;20.20;94.20;;;;;;5083056;28;20063;-64
2021/04/02 10:53:12;;;;;;;2.72;0.93;;;20.20;94.20;;;;;;5079055;28;20024;-61
2021/04/02 10:55:38;;;;;;;2.30;0.60;;;20.20;94.20;;;;;;5080047;28;20495;-64
2021/04/02 10:58:07;;;;;;;2.63;0.88;;;20.30;94.60;;;;;;5071998;28;20025;-61
2021/04/02 11:00:34;;;;;;;2.67;0.90;;;20.40;94.40;;;;;;5078564;28;20024;-63
2021/04/02 11:03:00;;;;;;;2.25;0.90;;;20.40;94.30;;;;;;5070330;28;20072;-65
2021/04/02 11:05:26;;;;;;;1.67;0.77;;;20.50;94.30;;;;;;5079112;28;20354;-63
2021/04/02 11:07:52;;;;;;;1.63;0.85;;;20.50;94.30;;;;;;5088528;28;20073;-65
2021/04/02 11:10:18;;;;;;;2.35;0.65;;;20.50;94.30;;;;;;5078709;28;20041;-64
2021/04/02 11:12:44;;;;;;;2.65;0.88;;;20.50;94.30;;;;;;5071004;28;20029;-66
2021/04/02 11:15:13;;;;;;;2.80;0.70;;;20.60;94.30;;;;;;5082264;28;20376;-60
2021/04/02 11:17:44;;;;;;;2.13;0.77;;;20.60;94.40;;;;;;5071299;28;20028;-63
2021/04/02 11:20:12;;;;;;;2.63;0.80;;;20.60;94.20;;;;;;5075634;28;20040;-62
2021/04/02 11:22:38;;;;;;;3.50;0.80;;;20.70;94.40;;;;;;5077845;28;20484;-61
2021/04/02 11:25:06;;;;;;;2.33;0.70;;;20.70;94.50;;;;;;5080371;28;20024;-63
2021/04/02 11:27:32;;;;;;;3.00;0.70;;;20.70;94.40;;;;;;5099325;28;20028;-64
2021/04/02 11:29:58;;;;;;;2.78;0.88;;;20.80;94.40;;;;;;5074348;28;20388;-63
2021/04/02 11:32:23;;;;;;;2.05;0.70;;;20.80;94.40;;;;;;5080950;28;20028;-64
2021/04/02 11:34:49;;;;;;;2.03;0.80;;;20.90;94.50;;;;;;5095700;28;20073;-64
2021/04/02 11:37:16;;;;;;;2.25;0.75;;;20.90;94.50;;;;;;5092982;28;20091;-64
2021/04/02 11:39:42;;;;;;;2.97;0.80;;;20.90;94.40;;;;;;5092545;28;20032;-65
2021/04/02 11:42:08;;;;;;;3.58;0.90;;;20.80;94.20;;;;;;5095516;28;20081;-64
2021/04/02 11:44:34;;;;;;;3.10;0.70;;;20.80;94.00;;;;;;5091952;28;20101;-64
2021/04/02 11:46:59;;;;;;;2.17;0.70;;;20.80;93.80;;;;;;5092845;28;20453;-64
2021/04/02 11:49:25;;;;;;;2.90;0.73;;;20.80;93.50;;;;;;5093895;28;20032;-64
2021/04/02 11:51:51;;;;;;;2.97;0.95;;;20.80;93.50;;;;;;5089847;28;20036;-65
2021/04/02 11:54:16;;;;;;;2.80;0.90;;;20.80;93.20;;;;;;5079309;28;20037;-63
2021/04/02 11:56:42;;;;;;;2.28;0.90;;;20.80;92.90;;;;;;5095344;28;20039;-65
2021/04/02 11:59:08;;;;;;;2.30;0.68;;;20.80;92.90;;;;;;5090016;28;20502;-66
2021/04/02 12:01:34;;;;;;;6.28;0.90;;;20.80;92.80;;;;;;5082385;28;20044;-64
2021/04/02 12:03:59;;;;;;;4.90;1.13;;;20.70;91.40;;;;;;5067821;28;20401;-65
2021/04/02 12:06:25;;;;;;;5.22;0.95;;;20.60;91.60;;;;;;5074521;28;20048;-63
2021/04/02 12:08:51;;;;;;;2.97;0.93;;;20.60;91.80;;;;;;5074649;28;20024;-61
2021/04/02 12:11:16;;;;;;;5.22;1.17;;;20.70;92.20;;;;;;5074663;28;20024;-64
2021/04/02 12:13:42;;;;;;;4.88;1.00;;;20.80;91.80;;;;;;5074545;28;20178;-64
2021/04/02 12:16:08;;;;;;;4.30;0.85;;;20.80;91.90;;;;;;5072791;28;20593;-65
2021/04/02 12:18:34;;;;;;;2.70;0.90;;;20.90;92.00;;;;;;5073223;28;20106;-62
2021/04/02 12:20:59;;;;;;;4.85;0.80;;;20.90;92.10;;;;;;5067787;28;20489;-64
2021/04/02 12:23:25;;;;;;;2.88;1.00;;;20.90;92.30;;;;;;5054105;28;20396;-64
2021/04/02 12:25:51;;;;;;;2.72;1.10;;;20.90;92.40;;;;;;5062149;28;20019;-63
2021/04/02 12:28:17;;;;;;;2.92;0.80;;;20.90;92.40;;;;;;5073688;28;20028;-64
2021/04/02 12:30:43;;;;;;;5.07;0.95;;;21.00;92.70;;;;;;5074077;28;20024;-64
2021/04/02 12:33:09;;;;;;;4.90;1.08;;;21.00;92.70;;;;;;5072881;28;20028;-62
2021/04/02 12:35:35;;;;;;;2.90;1.00;;;21.00;92.70;;;;;;5073734;28;20025;-63
2021/04/02 12:38:01;;;;;;;4.97;1.17;;;21.00;92.80;;;;;;5073329;28;20028;-62
2021/04/02 12:40:27;;;;;;;4.63;1.05;;;21.00;92.80;;;;;;5073899;28;20021;-63
2021/04/02 12:42:54;;;;;;;4.05;1.23;;;21.00;91.70;;;;;;5073300;28;20048;-64
2021/04/02 12:45:19;;;;;;;7.03;1.30;;;21.00;92.00;;;;;;5062936;28;20098;-63
2021/04/02 12:47:46;;;;;;;5.47;1.50;;;21.00;92.20;;;;;;5060098;28;20168;-63
2021/04/02 12:50:18;;;;;;;2.50;1.02;;;21.00;92.10;;;;;;5072867;28;20388;-64
2021/04/02 12:52:43;;;;;;;5.20;1.38;;;21.10;91.90;;;;;;5073020;28;20036;-63